Nearby METAR Reports

 

EBAW - Antwerp/Deurne, Belgium
Distance from station: ZZO 9km
Ververst: 19/07/2024 19:50
Helder
Helder
 Wind van ZO
Wind: ZO 11 km/h
Temperatuur: 27°C
Hitte-Index: 28°C
Dauwpunt: 18°C
Vochtigheid: 58%
Barometer: 1015 hPa
Overzicht: Helder
Visibility: greater than 10 km
2024/07/19 17:50 EBAW 191750Z 13006KT CAVOK 27/18 Q1015 NOSIG
EHWO - Woensdrecht Rnla, Netherlands
Distance from station: NNW 20km
Ververst: 19/07/2024 19:55
Helder
Helder
 Wind van ZO
Wind: ZO 6 km/h
Temperatuur: 28°C
Hitte-Index: 28°C
Dauwpunt: 16°C
Vochtigheid: 48%
Barometer: 1015 hPa
Clouds: Helder
Visibility: 10 km
2024/07/19 17:55 EHWO 191755Z AUTO 13003KT 9999 NCD 28/16 Q1015 BLU
 
EBBR - Brussels Nationa, Belgium
Distance from station: Z 43km
Ververst: 19/07/2024 19:50
Helder
Helder
 Wind van ONO
Wind: ONO 7 km/h
Temperatuur: 26°C
Dauwpunt: 17°C
Vochtigheid: 58%
Barometer: 1016 hPa
Overzicht: Helder
Visibility: greater than 10 km
2024/07/19 17:50 EBBR 191750Z 06004KT CAVOK 26/17 Q1016 NOSIG
EHGR - Gilze-Rijen Rnla, Netherlands
Distance from station: NO 47km
Ververst: 19/07/2024 19:55
Helder
Helder
 Wind van ZZO
Wind: ZZO 6 km/h
Temperatuur: 29°C
Hitte-Index: 29°C
Dauwpunt: 17°C
Vochtigheid: 48%
Barometer: 1015 hPa
Clouds: Helder
Visibility: 10 km
2024/07/19 17:55 EHGR 191755Z AUTO 16003KT 140V210 9999 NCD 29/17 Q1015 BLU
 
EBDT - Schaffen, Belgium
Distance from station: OZO 54km
Ververst: 19/07/2024 19:55
Helder
Helder
 Wind van ZZO
Wind: ZZO 7 km/h
Temperatuur: 28°C
Hitte-Index: 28°C
Dauwpunt: 15°C
Vochtigheid: 45%
Barometer: 1015 hPa
Clouds: Helder
Visibility: 10 km
2024/07/19 17:55 EBDT 191755Z AUTO 16004KT 9999 NCD 28/15 Q1015 BLU
EHFS - Vlissingen, Netherlands
Distance from station: WNW 60km
Ververst: 19/07/2024 19:55
Gedeeltelijk bewolkt
Gedeeltelijk bewolkt
 Wind van Z
Wind: Z 17 km/h
Temperatuur: 25°C
Dauwpunt: 19°C
Vochtigheid: 69%
Barometer: 1014 hPa
Clouds: Gedeeltelijk bewolkt
Visibility: 10 km
2024/07/19 17:55 EHFS 191755Z AUTO 17009KT 9999 NSC 25/19 Q1014
 
EBBE - Beauvechain (baf, Belgium
Distance from station: ZZO 64km
Ververst: 19/07/2024 19:55
Few Clouds
Few Clouds
 Wind van O
Wind: O 7 km/h
Temperatuur: 27°C
Hitte-Index: 28°C
Dauwpunt: 16°C
Vochtigheid: 51%
Barometer: 1015 hPa
Clouds: Few Clouds
Visibility: 10 km
Cloud details: Few Clouds 4877 m
2024/07/19 17:55 EBBE 191755Z AUTO 09004KT 9999 FEW160/// 27/16 Q1015 BLU
EHEH - Eindhoven Rnlafb, Netherlands
Distance from station: ONO 69km
Ververst: 19/07/2024 19:55
Helder
Helder
 Wind van ZO
Wind: ZO 11 km/h
Temperatuur: 28°C
Hitte-Index: 28°C
Dauwpunt: 14°C
Vochtigheid: 42%
Barometer: 1015 hPa
Clouds: Helder
Visibility: 10 km
2024/07/19 17:55 EHEH 191755Z AUTO 13006KT 090V170 9999 NCD 28/14 Q1015 BLU NOSIG RMK TREND REMOTE BY EHWX
 
EBBL - Kleine-Brogel(Ba, Belgium
Distance from station: O 74km
Ververst: 19/07/2024 19:55
Few Clouds
Few Clouds
 Wind van O
Wind: O 6 km/h
Temperatuur: 27°C
Hitte-Index: 27°C
Dauwpunt: 15°C
Vochtigheid: 48%
Barometer: 1015 hPa
Clouds: Few Clouds
Visibility: 10 km
Cloud details: Few Clouds 5182 m
2024/07/19 17:55 EBBL 191755Z AUTO 10003KT 9999 FEW170/// 27/15 Q1015 BLU
EHRD - Rotterdam Airpor, Netherlands
Distance from station: N 75km
Ververst: 19/07/2024 19:55
Helder
Helder
 Wind van O
Wind: O 11 km/h
Temperatuur: 28°C
Hitte-Index: 28°C
Dauwpunt: 17°C
Vochtigheid: 51%
Barometer: 1015 hPa
Clouds: Helder
Visibility: 10 km
2024/07/19 17:55 EHRD 191755Z AUTO 10006KT 070V130 9999 NCD 28/17 Q1015 NOSIG
 
EHSC - Goeree Le Sea, Netherlands
Distance from station: NW 89km
Ververst: 19/07/2024 19:55

 Wind van O
Wind: O 15 km/h
Temperatuur: 26°C
Dauwpunt: 17°C
Vochtigheid: 58%
Barometer: 1015 hPa
Visibility: 10 km
2024/07/19 17:55 EHSC 191755Z AUTO 09008KT 9999 ///////// 26/17 Q1015 W18/H3
EBCI - Charleroi/Gossel, Belgium
Distance from station: Z 90km
Ververst: 19/07/2024 19:50
Helder
Helder
 Wind van OZO
Wind: OZO 7 km/h
Temperatuur: 27°C
Hitte-Index: 28°C
Dauwpunt: 16°C
Vochtigheid: 51%
Barometer: 1016 hPa
Overzicht: Helder
Visibility: greater than 10 km
2024/07/19 17:50 EBCI 191750Z 11004KT 070V150 CAVOK 27/16 Q1016 NOSIG
 
EBCV - Chievres Ab, Belgium
Distance from station: ZZW 90km
Ververst: 19/07/2024 19:55
Meestal bewolkt
Meestal bewolkt
 Wind van ZO
Wind: ZO 6 km/h
Temperatuur: 28°C
Hitte-Index: 29°C
Dauwpunt: 18°C
Vochtigheid: 55%
Barometer: 1015 hPa
Clouds: Meestal bewolkt
Visibility: 10 km
Cloud details: Few Clouds 3353 m
Meestal bewolkt 4572 m
2024/07/19 17:55 EBCV 191755Z AUTO 13003KT 9999 FEW110/// BKN150/// 28/18 Q1015 BLU
EHVK - Volkel Rnlafb, Netherlands
Distance from station: ONO 97km
Ververst: 19/07/2024 19:55
Zwaar bewolkt
Zwaar bewolkt
 Wind van O
Wind: O 9 km/h
Temperatuur: 27°C
Hitte-Index: 28°C
Dauwpunt: 16°C
Vochtigheid: 51%
Barometer: 1015 hPa
Clouds: Zwaar bewolkt
Visibility: 10 km
Cloud details: Zwaar bewolkt 6096 m
2024/07/19 17:55 EHVK 191755Z AUTO 10005KT 080V140 9999 OVC200 27/16 Q1015 BLU
 
EBLG - Bierset/Liege (c, Belgium
Distance from station: ZO 102km
Ververst: 19/07/2024 19:50
Helder
Helder
 Wind van ONO
Wind: ONO 13 km/h
Temperatuur: 27°C
Hitte-Index: 27°C
Dauwpunt: 15°C
Vochtigheid: 48%
Barometer: 1016 hPa
Overzicht: Helder
Visibility: greater than 10 km
2024/07/19 17:50 EBLG 191750Z 06007KT CAVOK 27/15 Q1016 NOSIG
EHBK - Zuid-Limburg/Bee, Netherlands
Distance from station: OZO 102km
Ververst: 19/07/2024 19:55
Gedeeltelijk bewolkt
Gedeeltelijk bewolkt
 Wind van O
Wind: O 11 km/h
Temperatuur: 25°C
Dauwpunt: 16°C
Vochtigheid: 57%
Barometer: 1016 hPa
Clouds: Gedeeltelijk bewolkt
Visibility: 10 km
2024/07/19 17:55 EHBK 191755Z AUTO 08006KT 050V110 9999 NSC 25/16 Q1016 NOSIG
 
EBOS - Oostende Airport, Belgium
Distance from station: W 108km
Ververst: 19/07/2024 19:50
Helder
Helder
 Wind van NO
Wind: NO 11 km/h
Temperatuur: 27°C
Hitte-Index: 28°C
Dauwpunt: 18°C
Vochtigheid: 58%
Barometer: 1015 hPa
Overzicht: Helder
Visibility: greater than 10 km
2024/07/19 17:50 EBOS 191750Z 05006KT CAVOK 27/18 Q1015 NOSIG
EHSA - Euro Platform, Netherlands
Distance from station: NW 112km
Ververst: 19/07/2024 19:55

 Wind van ONO
Wind: ONO 13 km/h
Temperatuur: 24°C
Dauwpunt: 17°C
Vochtigheid: 65%
Barometer: 1015 hPa
Visibility: 10 km
2024/07/19 17:55 EHSA 191755Z AUTO 06007KT 9999 ///////// 24/17 Q1015 W17/H2
 
EHAM - Amsterdam/Schiph, Netherlands
Distance from station: NNO 118km
Ververst: 19/07/2024 19:55
Helder
Helder
 Wind van OZO
Wind: OZO 15 km/h
Temperatuur: 27°C
Hitte-Index: 28°C
Dauwpunt: 18°C
Vochtigheid: 58%
Barometer: 1015 hPa
Overzicht: Helder
Visibility: greater than 10 km
2024/07/19 17:55 EHAM 191755Z 12008KT CAVOK 27/18 Q1015 NOSIG
ETNG - Geilenkirchen(Na, Germany
Distance from station: OZO 118km
Ververst: 19/07/2024 19:50
Zwaar bewolkt
Zwaar bewolkt
 Wind van O
Wind: O 11 km/h
Temperatuur: 26°C
Dauwpunt: 15°C
Vochtigheid: 51%
Barometer: 1016 hPa
Clouds: Zwaar bewolkt
Visibility: 10 km
Cloud details: Gedeeltelijk bewolkt 5182 m
Zwaar bewolkt 7010 m
2024/07/19 17:50 ETNG 191750Z AUTO 08006KT 9999 // SCT170/// OVC230/// 26/15 Q1016